Date,TemperatureHighF,TemperatureAvgF,TemperatureLowF,DewpointHighF,DewpointAvgF,DewpointLowF,HumidityHigh,HumidityAvg,HumidityLow,PressureMaxIn,PressureMinIn,WindSpeedMaxMPH,WindSpeedAvgMPH,GustSpeedMaxMPH,PrecipitationSumIn
2013-6-1,79.2,69.7,59.6,70.9,62.8,54.4,95,80,56,30.00,29.65,16,5,16,0.46
2013-6-2,70.2,61.7,52.0,58.3,54.6,50.1,94,79,61,30.06,29.98,10,2,10,0.00
2013-6-3,78.3,78.3,78.3,59.8,59.8,59.8,53,53,53,29.90,29.90,4,4,4,0.00
2013-6-4,80.6,71.0,63.7,67.1,63.7,59.5,88,78,61,29.96,29.90,11,2,12,0.00
2013-6-5,80.5,71.7,63.5,68.8,64.5,59.7,94,79,62,30.01,29.87,13,4,14,0.62
2013-6-6,76.1,65.7,55.8,65.1,59.1,51.9,96,81,55,29.95,29.90,9,2,13,0.00
2013-6-7,81.5,62.1,49.3,63.5,53.4,47.1,94,76,40,29.99,29.91,9,1,9,0.00
2013-6-8,82.4,68.9,52.9,63.1,56.7,49.8,91,68,45,29.95,29.84,13,4,13,0.00
2013-6-9,86.0,74.3,63.9,65.8,61.0,58.0,84,65,41,29.92,29.85,11,4,12,0.00
2013-6-10,92.9,79.5,64.3,71.7,66.2,58.4,82,65,45,29.94,29.86,13,4,13,0.00
2013-6-11,94.9,83.0,72.7,72.2,68.2,65.7,80,63,42,30.01,29.92,16,6,16,0.00
2013-6-12,92.2,82.6,74.7,71.6,69.8,67.3,83,67,47,29.99,29.91,19,7,21,0.00
2013-6-13,93.8,80.5,70.0,71.6,68.7,64.1,91,69,42,30.04,29.94,8,2,10,0.00
2013-6-14,95.6,80.7,69.5,76.0,69.7,64.1,88,71,49,30.04,29.93,11,4,12,0.00
2013-6-15,70.2,69.4,67.9,67.9,67.4,66.1,95,93,91,29.99,29.96,8,3,8,0.00
2013-6-16,83.2,75.4,70.0,75.0,69.2,66.2,90,81,73,29.97,29.92,14,4,16,0.00
2013-6-17,73.8,68.8,64.6,70.4,66.1,62.7,95,91,84,29.98,29.87,12,3,12,0.84
2013-6-18,88.9,74.3,61.6,70.9,65.3,60.4,97,76,46,30.04,29.95,8,2,8,0.01
2013-6-19,88.9,74.9,60.1,70.6,64.5,58.1,94,72,46,30.07,29.97,13,3,13,0.00
2013-6-20,90.0,78.9,66.1,74.3,69.1,62.7,90,73,55,30.08,29.98,17,7,18,0.00
2013-6-21,92.5,82.5,74.3,75.1,72.1,70.1,88,72,54,30.09,30.00,18,7,18,0.00
2013-6-22,90.4,81.1,73.1,74.3,70.6,68.3,87,71,54,30.07,29.95,16,6,16,0.00
2013-6-23,91.4,81.4,72.7,74.2,70.5,67.2,88,71,52,30.01,29.91,20,8,22,0.00
2013-6-24,90.7,81.1,73.1,74.2,70.0,67.2,85,70,50,30.06,29.95,17,8,17,0.00
2013-6-25,88.4,81.1,74.5,72.1,69.8,68.0,83,69,54,29.99,29.85,26,9,26,0.00
2013-6-26,95.6,83.1,76.3,79.2,71.8,68.5,90,70,53,29.95,29.84,17,7,17,0.02
2013-6-27,100.1,85.1,70.6,76.7,73.9,68.0,94,71,44,29.99,29.86,8,2,8,0.00
2013-6-28,94.3,82.7,70.9,75.3,67.8,58.1,84,62,41,29.97,29.85,11,3,11,0.00
2013-6-29,87.8,75.6,59.4,62.6,56.3,51.4,90,55,30,29.92,29.82,18,4,18,0.00
2013-6-30,81.0,69.9,60.7,63.2,58.6,53.3,85,68,51,29.98,29.86,13,3,13,0.00